AirNav   Air Wisconsin Up To $57,000 Bonus
 
 1409 users online  

36PA Episcopal Hospital Heliport
Philadelphia, Pennsylvania, USA

GOING TO PHILADELPHIA?


FAA INFORMATION EFFECTIVE 05 DECEMBER 2019

Location

FAA Identifier: 36PA
Lat/Long: 39-59-24.6700N 075-07-49.2900W
39-59.411167N 075-07.821500W
39.9901861,-75.1303583
(estimated)
Elevation: 74 ft. / 23 m (estimated)
Variation: 12W (1995)
Time zone: UTC -5 (UTC -4 during Daylight Saving Time)
Zip code: 19133

Heliport Operations

Heliport use: Private use, MEDICAL USE.
Activation date: 08/1998
Control tower: no
ARTCC: NEW YORK CENTER
FSS: WILLIAMSPORT FLIGHT SERVICE STATION
Attendance: CONTINUOUS
Wind indicator: lighted
Segmented circle: no
Lights: FOR PERIMETER LGTS CALL AMGR.

Heliport Communications

WX ASOS at PNE (8 nm NE): PHONE 215-677-0146
WX ASOS at PHL (9 nm SW): PHONE 215-492-9617
WX AWOS-3 at LOM (11 nm NW): 118.925 (215-646-1068)
WX ASOS at VAY (13 nm E): 119.325 (609-267-1176)

Nearby radio navigation aids

VOR radial/distance  VOR name  Freq  Var
ARDr223/18.8YARDLEY VOR/DME108.2010W
OODr031/22.7WOODSTOWN VORTAC112.8010W
PTWr134/24.1POTTSTOWN VORTAC116.5009W
GXUr279/24.6MC GUIRE VORTAC110.6012W
MXEr089/25.2MODENA VORTAC113.2009W
VCNr355/28.2CEDAR LAKE VOR/DME115.2010W
DQOr060/28.9DUPONT VORTAC114.0010W
RBVr256/31.8ROBBINSVILLE VORTAC113.8010W
CYNr298/33.8COYLE VORTAC113.4010W
SBJr217/39.8SOLBERG VOR/DME112.9010W

 
NDB name  Hdg/Dist  Freq  Var  ID
AMBLER151/10.827512WING .. -. --.
RAINBOW011/34.336311WRNB .-. -. -...
LAKEHURST276/36.739611WNEL -. . .-..

Heliport Services

Runway Information

Helipad H1

Dimensions: 45 x 45 ft. / 14 x 14 m
Surface: mats
Runway edge lights: PERI
Runway edge markings: WHITE BORDER PAINT; WHITE HOSPITAL CROSS WITH RED 'H' IN CENTER.
Operational restrictions: INGRESS 060 & 160; EGRESS 240 & 340.
Latitude: 39-59.411167N
Longitude: 075-07.821500W
Elevation: 74.0 ft.
Traffic pattern: leftleft

Heliport Ownership and Management from official FAA records

Ownership: Privately-owned
Owner: EPISCOPAL HOSPITAL
100 EAST LEHIGH AVENUE
PHILADELPHIA, PA 19125
Phone (215) 707-7000
Manager: MATTHEW MCCLOSKEY
100 EAST LEHIGH AVENUE
PHILADELPHIA, PA 19125
Phone (215) 707-1067

Additional Remarks

FOR CD CTC PHILADELPHIA APCH AT 800-354-9884.

Instrument Procedures

There are no published instrument procedures at 36PA.

Some nearby airports with instrument procedures:

KPNE - Northeast Philadelphia Airport (8 nm NE)
KPHL - Philadelphia International Airport (9 nm SW)
KLOM - Wings Field Airport (11 nm NW)
KVAY - South Jersey Regional Airport (13 nm E)
19N - Camden County Airport (15 nm SE)
N14 - Flying W Airport (15 nm E)
17N - Cross Keys Airport (18 nm S)
N10 - Perkiomen Valley Airport (19 nm NW)
7N7 - Spitfire Aerodrome (20 nm SW)
 
Loc | Ops | Rwys | IFR | FBO | Links
Com | Nav | Svcs | Stats | Notes
Area around 36PA (Episcopal Hospital Heliport)
 
Road maps at: MapQuest Bing Google
 
Aerial photo
No photo
 
Sectional chart

 
Airport distance calculator
Flying to Episcopal Hospital Heliport? Find the distance to fly.

From to 36PA

Sunrise and sunset
Times for 05-Dec-2019
 Local
(UTC-5)
 Zulu
(UTC)
Morning civil twilight06:3811:38
Sunrise07:0812:08
Sunset16:3421:34
Evening civil twilight17:0422:04

Current date and time
Zulu (UTC)  05-Dec-2019 17:36:31
Local (UTC-5)  05-Dec-2019 12:36:31
 
METAR
KPNE 
8nm NE 
051654Z 30013G24KT 10SM FEW048 OVC060 07/M05 A2986 RMK AO2 PK WND 29026/1557 SLP112 T00671050
KPHL 
9nm SW 
051654Z 31018G23KT 10SM SCT050 07/M08 A2987 RMK AO2 PK WND 29034/1637 SLP114 T00671083 $
KLOM 
11nm NW 
051715Z AUTO 29016G19KT 10SM BKN060 BKN070 05/M06 A2984 RMK AO2 T00531064
KVAY 
14nm E 
ASOS 119.325 609-267-1176
051654Z AUTO 29014G24KT 10SM OVC055 06/M06 A2985 RMK AO2 SLP109 T00561056
TAF
KPNE 
8nm NE 
051120Z 0512/0612 27009KT P6SM BKN060 FM051400 29013G23KT P6SM BKN050 FM052200 29008KT P6SM SCT050 FM060700 VRB04KT P6SM BKN200
KPHL 
9nm SW 
051502Z 0515/0618 27015G22KT P6SM SCT050 TEMPO 0516/0520 BKN050 FM052300 28011KT P6SM SCT050 FM060700 25006KT P6SM BKN200 FM061300 20007KT P6SM OVC100
NOTAMs
Click for the latest NOTAMs
NOTAMs are issued by the DoD/FAA and will open in a separate window not controlled by AirNav.

 

 
 

Would you like to see your business listed on this page?

 If your business provides an interesting product or service to pilots, flight crews, aircraft, or users of the Episcopal Hospital Heliport, you should consider listing it here.  To start the listing process, click on the button below
 
Add a business
 

Other Pages about Episcopal Hospital Heliport

Update a link
 
Copyright © AirNav, LLC. All rights reserved. Privacy Policy  Contact